createdAt,value
2022-10-18T00:01:07.901Z,12.53
2022-10-18T00:03:36.614Z,14.57
2022-10-18T00:06:03.940Z,10.27
2022-10-18T00:08:34.576Z,12.15
2022-10-18T00:11:05.957Z,9.50
2022-10-18T00:13:32.937Z,12.13
2022-10-18T00:16:05.768Z,9.73
2022-10-18T00:18:32.710Z,8.40
2022-10-18T00:21:09.831Z,12.77
2022-10-18T00:23:37.099Z,9.00
2022-10-18T00:26:30.198Z,18.27
2022-10-18T00:29:01.956Z,9.75
2022-10-18T00:31:38.707Z,12.98
2022-10-18T00:34:12.608Z,8.47
2022-10-18T00:36:40.140Z,11.38
2022-10-18T00:39:09.416Z,11.37
2022-10-18T00:41:38.098Z,14.47
2022-10-18T00:44:13.806Z,11.83
2022-10-18T00:46:45.777Z,11.50
2022-10-18T00:49:44.853Z,8.93
2022-10-18T00:52:43.622Z,10.80
2022-10-18T00:55:11.451Z,13.85
2022-10-18T00:57:42.589Z,14.60
2022-10-18T01:00:11.429Z,17.70
2022-10-18T01:02:42.176Z,10.07
2022-10-18T01:05:16.819Z,11.47
2022-10-18T01:08:32.508Z,12.53
2022-10-18T01:11:50.471Z,12.43
2022-10-18T01:14:43.536Z,13.73
2022-10-18T01:17:36.041Z,15.80
2022-10-18T01:20:55.969Z,13.07
2022-10-18T01:23:57.535Z,9.90
2022-10-18T01:27:15.814Z,14.40
2022-10-18T01:30:26.357Z,18.27
2022-10-18T01:33:01.180Z,13.37
2022-10-18T01:35:39.597Z,18.50
2022-10-18T01:38:17.032Z,16.93
2022-10-18T01:40:49.002Z,13.57
2022-10-18T01:43:19.457Z,16.87
2022-10-18T01:45:47.349Z,14.03
2022-10-18T01:48:16.095Z,13.45
2022-10-18T01:50:43.500Z,16.13
2022-10-18T01:53:28.221Z,18.20
2022-10-18T01:56:18.023Z,19.33
2022-10-18T01:59:17.432Z,15.50
2022-10-18T02:02:32.701Z,16.65
2022-10-18T02:05:57.958Z,16.75
2022-10-18T02:08:55.358Z,19.15
2022-10-18T02:11:25.417Z,16.63
2022-10-18T02:14:00.454Z,21.70
2022-10-18T02:16:41.312Z,16.40
2022-10-18T02:19:17.211Z,16.50
2022-10-18T02:21:48.375Z,17.60
2022-10-18T02:24:18.165Z,16.42
2022-10-18T02:26:45.317Z,18.00
2022-10-18T02:29:13.797Z,12.90
2022-10-18T02:31:55.530Z,11.27
2022-10-18T02:34:44.141Z,21.92
2022-10-18T02:37:13.801Z,19.15
2022-10-18T02:39:50.678Z,14.43
2022-10-18T02:42:17.945Z,21.00
2022-10-18T02:44:45.959Z,19.48
2022-10-18T02:47:13.103Z,19.80
2022-10-18T02:49:40.454Z,17.90
2022-10-18T02:52:07.443Z,26.42
2022-10-18T02:54:35.323Z,21.92
2022-10-18T02:57:03.348Z,26.27
2022-10-18T02:59:30.502Z,19.38
2022-10-18T03:01:57.478Z,15.60
2022-10-18T03:04:25.078Z,26.73
2022-10-18T03:06:52.063Z,24.30
2022-10-18T03:09:19.048Z,23.70
2022-10-18T03:11:54.570Z,26.05
2022-10-18T03:14:22.228Z,22.93
2022-10-18T03:16:49.651Z,20.75
2022-10-18T03:19:16.670Z,25.90
2022-10-18T03:21:43.700Z,23.48
2022-10-18T03:24:10.912Z,25.80
2022-10-18T03:26:37.845Z,26.85
2022-10-18T03:29:04.889Z,13.10
2022-10-18T03:31:32.286Z,16.87
2022-10-18T03:33:59.223Z,21.80
2022-10-18T03:36:26.477Z,15.80
2022-10-18T03:38:53.520Z,22.60
2022-10-18T03:41:20.851Z,22.25
2022-10-18T03:43:47.953Z,20.85
2022-10-18T03:46:14.896Z,16.38
2022-10-18T03:48:41.843Z,9.85
2022-10-18T03:51:08.797Z,21.87
2022-10-18T03:53:36.911Z,27.83
2022-10-18T03:56:03.897Z,25.33
2022-10-18T03:58:30.945Z,27.13
2022-10-18T04:00:57.911Z,26.93
2022-10-18T04:03:24.917Z,30.48
2022-10-18T04:05:52.000Z,26.83
2022-10-18T04:08:19.562Z,31.73
2022-10-18T04:10:46.996Z,37.22
2022-10-18T04:13:14.071Z,23.20
2022-10-18T04:15:41.385Z,30.87
2022-10-18T04:18:08.371Z,31.45
2022-10-18T04:20:35.575Z,37.42
2022-10-18T04:23:02.596Z,35.30
2022-10-18T04:25:29.579Z,40.10
2022-10-18T04:27:57.050Z,39.30
2022-10-18T04:30:23.991Z,41.00
2022-10-18T04:32:50.951Z,44.53
2022-10-18T04:35:18.266Z,35.78
2022-10-18T04:37:45.238Z,36.57
2022-10-18T04:40:13.008Z,36.67
2022-10-18T04:42:39.913Z,41.67
2022-10-18T04:45:11.111Z,38.33
2022-10-18T04:47:38.314Z,35.53
2022-10-18T04:50:06.101Z,43.58
2022-10-18T04:52:33.071Z,37.10
2022-10-18T04:54:59.999Z,30.67
2022-10-18T04:57:39.988Z,27.13
2022-10-18T05:00:07.689Z,17.42
2022-10-18T05:02:34.931Z,31.05
2022-10-18T05:05:02.207Z,37.03
2022-10-18T05:07:29.254Z,35.78
2022-10-18T05:09:56.309Z,32.37
2022-10-18T05:12:23.337Z,41.33
2022-10-18T05:14:50.316Z,49.78
2022-10-18T05:17:17.293Z,51.57
2022-10-18T05:19:44.281Z,41.40
2022-10-18T05:22:11.225Z,38.57
2022-10-18T05:24:38.441Z,34.37
2022-10-18T05:27:05.558Z,32.33
2022-10-18T05:29:32.629Z,18.02
2022-10-18T05:31:59.613Z,33.50
2022-10-18T05:34:27.305Z,37.43
2022-10-18T05:36:54.301Z,43.53
2022-10-18T05:39:21.496Z,42.80
2022-10-18T05:41:48.448Z,47.17
2022-10-18T05:44:15.475Z,50.60
2022-10-18T05:46:42.462Z,33.37
2022-10-18T05:49:12.870Z,37.47
2022-10-18T05:51:40.343Z,48.63
2022-10-18T05:54:07.346Z,44.25
2022-10-18T05:56:34.380Z,35.03
2022-10-18T05:59:02.955Z,37.07
2022-10-18T06:01:29.869Z,16.17
2022-10-18T06:03:56.902Z,50.43
2022-10-18T06:06:23.804Z,50.37
2022-10-18T06:08:50.741Z,42.17
2022-10-18T06:11:22.929Z,25.63
2022-10-18T06:13:52.164Z,34.67
2022-10-18T06:16:22.627Z,31.13
2022-10-18T06:18:53.275Z,40.20
2022-10-18T06:21:21.440Z,25.93
2022-10-18T06:23:58.227Z,36.57
2022-10-18T06:26:27.864Z,38.33
2022-10-18T06:28:54.848Z,30.20
2022-10-18T06:31:21.830Z,31.83
2022-10-18T06:33:49.233Z,36.23
2022-10-18T06:36:21.221Z,36.33
2022-10-18T06:38:48.298Z,23.80
2022-10-18T06:41:15.558Z,35.93
2022-10-18T06:43:43.767Z,31.87
2022-10-18T06:46:10.754Z,14.17
2022-10-18T06:48:39.698Z,23.13
2022-10-18T06:51:08.763Z,49.10
2022-10-18T06:53:44.018Z,33.92
2022-10-18T06:56:15.905Z,35.27
2022-10-18T06:58:42.883Z,39.30
2022-10-18T07:01:16.384Z,27.20
2022-10-18T07:03:47.881Z,31.47
2022-10-18T07:06:18.265Z,43.93
2022-10-18T07:08:46.710Z,40.93
2022-10-18T07:11:26.888Z,48.93
2022-10-18T07:14:00.798Z,60.33
2022-10-18T07:16:27.900Z,52.27
2022-10-18T07:18:54.885Z,47.97
2022-10-18T07:21:26.223Z,43.80
2022-10-18T07:23:59.660Z,45.40
2022-10-18T07:26:33.252Z,37.87
2022-10-18T07:29:11.602Z,49.83
2022-10-18T07:31:39.255Z,39.50
2022-10-18T07:34:08.994Z,31.43
2022-10-18T07:36:36.098Z,32.70
2022-10-18T07:39:04.074Z,36.77
2022-10-18T07:41:33.495Z,48.60
2022-10-18T07:44:03.821Z,41.15
2022-10-18T07:46:31.182Z,20.97
2022-10-18T07:48:59.498Z,37.22
2022-10-18T07:51:29.172Z,23.53
2022-10-18T07:53:56.265Z,30.08
2022-10-18T07:56:23.294Z,32.30
2022-10-18T07:58:57.127Z,30.17
2022-10-18T08:01:25.482Z,22.17
2022-10-18T08:03:53.819Z,34.63
2022-10-18T08:06:32.948Z,22.05
2022-10-18T08:09:00.098Z,21.10
2022-10-18T08:11:27.237Z,33.92
2022-10-18T08:13:54.748Z,35.42
2022-10-18T08:16:28.859Z,33.13
2022-10-18T08:18:58.768Z,36.30
2022-10-18T08:21:26.644Z,12.65
2022-10-18T08:23:53.914Z,26.67
2022-10-18T08:26:23.514Z,41.50
2022-10-18T08:29:10.345Z,55.65
2022-10-18T08:31:38.348Z,37.87
2022-10-18T08:34:05.261Z,34.47
2022-10-18T08:36:32.312Z,38.87
2022-10-18T08:38:59.376Z,46.70
2022-10-18T08:41:54.516Z,36.90
2022-10-18T08:44:28.264Z,44.37
2022-10-18T08:47:10.441Z,57.23
2022-10-18T08:49:58.095Z,39.30
2022-10-18T08:53:05.914Z,42.28
2022-10-18T08:55:52.566Z,84.18
2022-10-18T08:58:31.625Z,56.37
2022-10-18T09:01:32.663Z,34.07
2022-10-18T09:04:40.750Z,63.20
2022-10-18T09:07:32.805Z,57.50
2022-10-18T09:10:37.373Z,54.50
2022-10-18T09:13:41.524Z,44.77
2022-10-18T09:16:29.024Z,35.60
2022-10-18T09:19:42.195Z,34.10
2022-10-18T09:22:19.191Z,31.52
2022-10-18T09:25:18.173Z,35.53
2022-10-18T09:28:10.927Z,30.48
2022-10-18T09:31:18.535Z,41.03
2022-10-18T09:34:01.639Z,39.22
2022-10-18T09:36:37.720Z,44.47
2022-10-18T09:39:23.662Z,39.78
2022-10-18T09:42:00.087Z,45.65
2022-10-18T09:44:44.685Z,33.87
2022-10-18T09:47:45.410Z,39.80
2022-10-18T09:50:43.881Z,40.05
2022-10-18T09:53:50.893Z,44.50
2022-10-18T09:59:46.785Z,35.53
2022-10-18T10:02:22.937Z,41.53
2022-10-18T10:04:52.181Z,21.83
2022-10-18T10:07:28.612Z,29.90
2022-10-18T10:10:27.693Z,28.45
2022-10-18T10:13:17.701Z,28.42
2022-10-18T10:16:00.250Z,31.73
2022-10-18T10:18:35.657Z,30.40
2022-10-18T10:21:13.301Z,31.92
2022-10-18T10:24:00.982Z,28.92
2022-10-18T10:26:34.688Z,25.17
2022-10-18T10:29:01.869Z,30.60
2022-10-18T10:31:31.818Z,33.43
2022-10-18T10:34:14.754Z,25.90
2022-10-18T10:36:54.877Z,35.83
2022-10-18T10:39:27.116Z,28.15
2022-10-18T10:42:00.621Z,42.15
2022-10-18T10:44:36.056Z,32.60
2022-10-18T10:47:05.526Z,33.70
2022-10-18T10:49:41.056Z,34.90
2022-10-18T10:52:27.636Z,36.15
2022-10-18T10:57:48.578Z,41.13
2022-10-18T11:00:44.240Z,40.63
2022-10-18T11:03:34.530Z,32.60
2022-10-18T11:06:02.121Z,42.13
2022-10-18T11:08:39.828Z,39.78
2022-10-18T11:11:28.516Z,39.80
2022-10-18T11:14:29.635Z,49.40
2022-10-18T11:17:38.228Z,30.27
2022-10-18T11:20:10.754Z,31.33
2022-10-18T11:22:59.960Z,34.90
2022-10-18T11:25:59.195Z,31.80
2022-10-18T11:28:36.296Z,36.87
2022-10-18T11:31:45.286Z,31.67
2022-10-18T11:35:06.427Z,30.97
2022-10-18T11:38:15.218Z,33.97
2022-10-18T11:41:28.141Z,20.95
2022-10-18T11:44:04.194Z,24.10
2022-10-18T11:47:18.143Z,17.45
2022-10-18T11:50:26.154Z,22.50
2022-10-18T11:53:28.516Z,23.48
2022-10-18T11:56:19.527Z,21.23
2022-10-18T11:58:55.176Z,23.70
2022-10-18T12:01:52.959Z,21.02
2022-10-18T12:04:28.168Z,20.23
2022-10-18T12:06:56.502Z,22.48
2022-10-18T12:09:41.212Z,18.20
2022-10-18T12:12:27.694Z,15.32
2022-10-18T12:15:13.230Z,13.10
2022-10-18T12:17:53.356Z,15.95
2022-10-18T12:20:39.462Z,18.20
2022-10-18T12:23:29.942Z,22.10
2022-10-18T12:26:03.892Z,17.58
2022-10-18T12:29:31.882Z,19.10
2022-10-18T12:32:22.241Z,16.58
2022-10-18T12:35:04.484Z,17.70
2022-10-18T12:38:08.014Z,20.38
2022-10-18T12:40:49.578Z,21.92
2022-10-18T12:43:42.353Z,20.15
2022-10-18T12:46:13.771Z,20.97
2022-10-18T12:49:00.500Z,20.33
2022-10-18T12:51:31.835Z,18.33
2022-10-18T12:54:11.493Z,18.67
2022-10-18T12:56:43.703Z,17.77
2022-10-18T12:59:16.892Z,19.65
2022-10-18T13:02:22.480Z,23.65
2022-10-18T13:04:50.180Z,21.95
2022-10-18T13:07:40.981Z,13.15
2022-10-18T13:10:11.204Z,17.58
2022-10-18T13:13:29.531Z,13.57
2022-10-18T13:16:23.719Z,18.50
2022-10-18T13:19:18.972Z,19.00
2022-10-18T13:22:18.933Z,18.58
2022-10-18T13:25:14.179Z,16.83
2022-10-18T13:28:08.779Z,16.17
2022-10-18T13:31:12.011Z,16.95
2022-10-18T13:33:41.922Z,13.63
2022-10-18T13:36:22.711Z,13.02
2022-10-18T13:39:04.784Z,16.90
2022-10-18T13:41:41.897Z,14.82
2022-10-18T13:44:40.324Z,16.92
2022-10-18T13:47:14.581Z,15.85
2022-10-18T13:53:29.562Z,12.93
2022-10-18T13:56:08.275Z,8.10
2022-10-18T13:59:25.131Z,12.10
2022-10-18T14:02:51.435Z,14.30
2022-10-18T14:06:19.050Z,13.43
2022-10-18T14:09:09.349Z,20.25
2022-10-18T14:12:31.372Z,12.38
2022-10-18T14:15:26.032Z,15.90
2022-10-18T14:18:04.885Z,15.32
2022-10-18T14:21:01.304Z,15.98
2022-10-18T14:23:41.912Z,21.85
2022-10-18T14:26:20.900Z,18.52
2022-10-18T14:29:19.555Z,16.48
2022-10-18T14:31:54.367Z,18.05
2022-10-18T14:34:21.851Z,19.98
2022-10-18T14:36:50.289Z,17.13
2022-10-18T14:39:26.658Z,16.35
2022-10-18T14:41:57.130Z,19.15
2022-10-18T14:44:35.128Z,22.15
2022-10-18T14:47:14.836Z,16.05
2022-10-18T14:49:46.448Z,14.63
2022-10-18T14:52:26.382Z,9.90
2022-10-18T14:54:57.034Z,13.07
2022-10-18T14:57:36.159Z,10.80
2022-10-18T15:00:35.479Z,16.40
2022-10-18T15:03:21.148Z,17.85
2022-10-18T15:06:06.013Z,13.15
2022-10-18T15:08:40.537Z,10.95
2022-10-18T15:11:11.868Z,10.65
2022-10-18T15:14:08.802Z,19.33
2022-10-18T15:16:38.585Z,17.00
2022-10-18T15:19:34.767Z,16.88
2022-10-18T15:25:14.848Z,18.35
2022-10-18T15:27:58.374Z,16.98
2022-10-18T15:30:31.721Z,19.95
2022-10-18T15:33:11.978Z,18.65
2022-10-18T15:35:41.172Z,17.85
2022-10-18T15:38:33.463Z,18.70
2022-10-18T15:41:00.832Z,14.80
2022-10-18T15:43:27.725Z,18.02
2022-10-18T15:46:05.396Z,20.00
2022-10-18T15:48:43.400Z,15.10
2022-10-18T15:51:48.947Z,15.23
2022-10-18T15:54:29.264Z,15.43
2022-10-18T15:56:56.750Z,21.30
2022-10-18T15:59:31.089Z,17.30
2022-10-18T16:01:58.335Z,21.57
2022-10-18T16:04:33.060Z,21.00
2022-10-18T16:07:00.845Z,25.30
2022-10-18T16:09:29.200Z,23.23
2022-10-18T16:11:58.095Z,20.23
2022-10-18T16:14:26.444Z,15.33
2022-10-18T16:17:02.457Z,22.27
2022-10-18T16:19:30.981Z,23.33
2022-10-18T16:22:03.632Z,24.50
2022-10-18T16:24:33.197Z,26.77
2022-10-18T16:27:00.136Z,32.43
2022-10-18T16:29:31.824Z,24.83
2022-10-18T16:31:59.929Z,21.63
2022-10-18T16:34:27.377Z,22.17
2022-10-18T16:36:57.276Z,28.40
2022-10-18T16:39:25.056Z,25.83
2022-10-18T16:41:52.610Z,26.30
2022-10-18T16:44:19.714Z,33.13
2022-10-18T16:46:51.101Z,21.93
2022-10-18T16:49:25.021Z,23.50
2022-10-18T16:51:54.272Z,32.13
2022-10-18T16:54:21.820Z,28.47
2022-10-18T16:56:50.125Z,28.33
2022-10-18T16:59:35.371Z,33.07
2022-10-18T17:02:06.301Z,39.57
2022-10-18T17:04:33.270Z,31.17
2022-10-18T17:07:00.242Z,32.63
2022-10-18T17:09:28.578Z,35.13
2022-10-18T17:11:55.594Z,48.47
2022-10-18T17:14:22.531Z,36.63
2022-10-18T17:16:53.751Z,37.60
2022-10-18T17:19:23.248Z,38.37
2022-10-18T17:21:50.137Z,44.83
2022-10-18T17:24:17.109Z,41.50
2022-10-18T17:26:44.300Z,41.17
2022-10-18T17:29:11.327Z,35.73
2022-10-18T17:31:38.424Z,36.37
2022-10-18T17:34:05.406Z,26.27
2022-10-18T17:36:34.518Z,44.43
2022-10-18T17:39:01.882Z,41.83
2022-10-18T17:41:28.986Z,29.10
2022-10-18T17:43:55.916Z,39.03
2022-10-18T17:46:23.619Z,43.53
2022-10-18T17:48:50.617Z,36.27
2022-10-18T17:51:18.472Z,30.17
2022-10-18T17:53:45.825Z,31.50
2022-10-18T17:56:14.584Z,32.63
2022-10-18T17:58:45.592Z,16.50
2022-10-18T18:01:20.178Z,28.83
2022-10-18T18:03:50.599Z,23.77
2022-10-18T18:06:30.742Z,38.93
2022-10-18T18:08:59.998Z,26.07
2022-10-18T18:11:28.982Z,23.87
2022-10-18T18:13:56.438Z,29.57
2022-10-18T18:16:28.540Z,18.47
2022-10-18T18:18:58.231Z,36.90
2022-10-18T18:21:27.208Z,24.43
2022-10-18T18:23:55.051Z,14.87
2022-10-18T18:26:22.644Z,34.73
2022-10-18T18:28:49.983Z,31.13
2022-10-18T18:31:26.236Z,33.53
2022-10-18T18:33:57.286Z,36.00
2022-10-18T18:36:28.829Z,24.17
2022-10-18T18:38:57.735Z,22.80
2022-10-18T18:41:26.742Z,24.20
2022-10-18T18:44:02.467Z,22.07
2022-10-18T18:46:36.831Z,25.77
2022-10-18T18:49:05.266Z,36.50
2022-10-18T18:51:33.437Z,36.77
2022-10-18T18:54:00.807Z,27.20
2022-10-18T18:56:28.938Z,24.30
2022-10-18T18:58:59.122Z,23.47
2022-10-18T19:01:38.398Z,24.03
2022-10-18T19:04:09.152Z,21.70
2022-10-18T19:06:42.187Z,31.30
2022-10-18T19:09:19.594Z,19.10
2022-10-18T19:11:52.817Z,26.80
2022-10-18T19:16:58.903Z,28.90
2022-10-18T19:19:30.371Z,27.43
2022-10-18T19:22:04.897Z,26.10
2022-10-18T19:24:32.889Z,23.43
2022-10-18T19:27:05.297Z,20.27
2022-10-18T19:29:36.547Z,19.83
2022-10-18T19:32:08.715Z,27.47
2022-10-18T19:34:35.995Z,15.83
2022-10-18T19:37:03.894Z,21.50
2022-10-18T19:39:34.666Z,16.63
2022-10-18T19:42:06.776Z,15.40
2022-10-18T19:44:36.221Z,34.00
2022-10-18T19:47:06.439Z,38.17
2022-10-18T19:49:33.421Z,56.43
2022-10-18T19:52:00.370Z,55.93
2022-10-18T19:54:27.654Z,61.87
2022-10-18T19:56:54.824Z,58.87
2022-10-18T19:59:22.858Z,25.60
2022-10-18T20:01:50.352Z,22.83
2022-10-18T20:04:17.666Z,22.63
2022-10-18T20:06:44.817Z,15.50
2022-10-18T20:09:16.259Z,18.67
2022-10-18T20:11:46.545Z,14.87
2022-10-18T20:14:13.500Z,18.87
2022-10-18T20:16:40.680Z,16.50
2022-10-18T20:19:09.474Z,17.10
2022-10-18T20:21:36.889Z,12.70
2022-10-18T20:24:06.155Z,15.23
2022-10-18T20:26:34.491Z,18.97
2022-10-18T20:29:01.559Z,19.37
2022-10-18T20:31:32.228Z,19.80
2022-10-18T20:34:04.489Z,17.30
2022-10-18T20:36:33.391Z,18.43
2022-10-18T20:39:01.413Z,15.77
2022-10-18T20:41:40.925Z,13.00
2022-10-18T20:44:16.741Z,12.70
2022-10-18T20:46:44.298Z,12.93
2022-10-18T20:49:16.185Z,10.90
2022-10-18T20:51:43.472Z,14.43
2022-10-18T20:54:13.125Z,14.83
2022-10-18T20:56:40.316Z,21.40
2022-10-18T20:59:09.682Z,18.67
2022-10-18T21:01:38.705Z,14.30
2022-10-18T21:04:09.131Z,15.20
2022-10-18T21:06:45.183Z,15.03
2022-10-18T21:09:18.013Z,19.93
2022-10-18T21:11:50.112Z,12.47
2022-10-18T21:14:22.900Z,12.23
2022-10-18T21:16:51.896Z,11.10
2022-10-18T21:19:26.396Z,11.77
2022-10-18T21:21:57.139Z,13.33
2022-10-18T21:24:26.105Z,9.57
2022-10-18T21:26:53.526Z,13.23
2022-10-18T21:29:22.623Z,13.23
2022-10-18T21:31:53.518Z,12.17
2022-10-18T21:34:20.782Z,13.30
2022-10-18T21:36:48.684Z,24.47
2022-10-18T21:39:21.559Z,20.67
2022-10-18T21:41:49.381Z,12.57
2022-10-18T21:44:17.435Z,12.57
2022-10-18T21:46:45.082Z,17.40
2022-10-18T21:49:13.565Z,10.27
2022-10-18T21:51:41.613Z,11.97
2022-10-18T21:54:15.237Z,14.40
2022-10-18T21:56:42.919Z,9.27
2022-10-18T21:59:12.783Z,14.80
2022-10-18T22:01:40.555Z,10.23
2022-10-18T22:04:24.587Z,12.63
2022-10-18T22:06:52.250Z,13.70
2022-10-18T22:09:21.107Z,11.03
2022-10-18T22:11:53.470Z,11.17
2022-10-18T22:14:21.711Z,9.57
2022-10-18T22:16:48.721Z,12.17
2022-10-18T22:19:15.670Z,10.53
2022-10-18T22:21:42.572Z,10.43
2022-10-18T22:24:10.510Z,12.87
2022-10-18T22:26:41.693Z,5.90
2022-10-18T22:29:14.988Z,11.93
2022-10-18T22:31:49.543Z,11.20
2022-10-18T22:34:21.073Z,6.77
2022-10-18T22:36:48.047Z,7.50
2022-10-18T22:39:16.852Z,10.13
2022-10-18T22:41:44.354Z,11.90
2022-10-18T22:44:13.959Z,9.47
2022-10-18T22:46:42.208Z,11.40
2022-10-18T22:49:09.527Z,13.00
2022-10-18T22:51:36.473Z,8.67
2022-10-18T22:54:03.525Z,8.67
2022-10-18T22:56:30.489Z,9.90
2022-10-18T22:58:57.466Z,10.30
2022-10-18T23:01:25.164Z,10.47
2022-10-18T23:03:59.011Z,8.47
2022-10-18T23:06:32.825Z,11.70
2022-10-18T23:09:06.980Z,8.33
2022-10-18T23:11:35.697Z,8.50
2022-10-18T23:14:05.153Z,10.10
2022-10-18T23:16:32.438Z,10.20
2022-10-18T23:18:59.778Z,15.43
2022-10-18T23:21:28.491Z,5.90
2022-10-18T23:23:57.039Z,8.93
2022-10-18T23:26:27.519Z,11.50
2022-10-18T23:28:55.830Z,6.07
2022-10-18T23:31:31.740Z,10.80
2022-10-18T23:34:04.685Z,7.53
2022-10-18T23:36:33.841Z,16.80
2022-10-18T23:39:01.584Z,14.63
2022-10-18T23:41:28.632Z,10.70
2022-10-18T23:43:55.917Z,16.90
2022-10-18T23:46:23.026Z,14.70
2022-10-18T23:48:50.446Z,12.87
2022-10-18T23:51:18.256Z,11.33
2022-10-18T23:53:45.306Z,11.80
2022-10-18T23:56:16.212Z,16.37
2022-10-18T23:58:45.503Z,6.87
